sensor_id;sensor_type;location;lat;lon;timestamp;P1;durP1;ratioP1;P2;durP2;ratioP2
73382;SDS011;61600;48.126;11.542;2022-11-04T00:01:14;6.25;;;2.80;;
73382;SDS011;61600;48.126;11.542;2022-11-04T00:03:39;4.82;;;2.50;;
73382;SDS011;61600;48.126;11.542;2022-11-04T00:06:06;5.10;;;2.53;;
73382;SDS011;61600;48.126;11.542;2022-11-04T00:08:32;5.03;;;2.40;;
73382;SDS011;61600;48.126;11.542;2022-11-04T00:10:58;8.10;;;2.75;;
73382;SDS011;61600;48.126;11.542;2022-11-04T00:13:43;5.00;;;2.55;;
73382;SDS011;61600;48.126;11.542;2022-11-04T00:16:13;5.20;;;2.13;;
73382;SDS011;61600;48.126;11.542;2022-11-04T00:18:58;5.97;;;2.22;;
73382;SDS011;61600;48.126;11.542;2022-11-04T00:21:25;5.38;;;2.50;;
73382;SDS011;61600;48.126;11.542;2022-11-04T00:24:10;5.85;;;2.10;;
73382;SDS011;61600;48.126;11.542;2022-11-04T00:27:18;5.68;;;2.25;;
73382;SDS011;61600;48.126;11.542;2022-11-04T00:30:04;5.18;;;2.47;;
73382;SDS011;61600;48.126;11.542;2022-11-04T00:32:32;6.55;;;3.03;;
73382;SDS011;61600;48.126;11.542;2022-11-04T00:35:17;2.65;;;1.48;;
73382;SDS011;61600;48.126;11.542;2022-11-04T00:37:46;2.47;;;1.30;;
73382;SDS011;61600;48.126;11.542;2022-11-04T00:40:13;3.83;;;1.60;;
73382;SDS011;61600;48.126;11.542;2022-11-04T00:42:43;2.78;;;1.30;;
73382;SDS011;61600;48.126;11.542;2022-11-04T00:45:10;6.68;;;2.15;;
73382;SDS011;61600;48.126;11.542;2022-11-04T00:47:36;5.00;;;1.98;;
73382;SDS011;61600;48.126;11.542;2022-11-04T00:50:02;5.13;;;1.88;;
73382;SDS011;61600;48.126;11.542;2022-11-04T00:52:28;4.75;;;2.13;;
73382;SDS011;61600;48.126;11.542;2022-11-04T00:54:56;3.28;;;1.40;;
73382;SDS011;61600;48.126;11.542;2022-11-04T00:57:22;4.50;;;2.10;;
73382;SDS011;61600;48.126;11.542;2022-11-04T00:59:48;3.20;;;1.65;;
73382;SDS011;61600;48.126;11.542;2022-11-04T01:02:13;3.20;;;1.58;;
73382;SDS011;61600;48.126;11.542;2022-11-04T01:04:42;2.78;;;1.60;;
73382;SDS011;61600;48.126;11.542;2022-11-04T01:07:08;3.03;;;1.42;;
73382;SDS011;61600;48.126;11.542;2022-11-04T01:09:37;1.88;;;0.82;;
73382;SDS011;61600;48.126;11.542;2022-11-04T01:12:02;2.42;;;1.13;;
73382;SDS011;61600;48.126;11.542;2022-11-04T01:14:28;2.13;;;0.88;;
73382;SDS011;61600;48.126;11.542;2022-11-04T01:16:54;3.40;;;1.38;;
73382;SDS011;61600;48.126;11.542;2022-11-04T01:19:20;3.83;;;1.60;;
73382;SDS011;61600;48.126;11.542;2022-11-04T01:21:49;2.45;;;1.02;;
73382;SDS011;61600;48.126;11.542;2022-11-04T01:24:15;2.92;;;1.30;;
73382;SDS011;61600;48.126;11.542;2022-11-04T01:26:40;1.85;;;0.98;;
73382;SDS011;61600;48.126;11.542;2022-11-04T01:29:09;2.55;;;1.15;;
73382;SDS011;61600;48.126;11.542;2022-11-04T01:31:34;3.92;;;1.20;;
73382;SDS011;61600;48.126;11.542;2022-11-04T01:34:00;2.20;;;0.93;;
73382;SDS011;61600;48.126;11.542;2022-11-04T01:36:29;5.72;;;1.30;;
73382;SDS011;61600;48.126;11.542;2022-11-04T01:38:54;1.67;;;1.00;;
73382;SDS011;61600;48.126;11.542;2022-11-04T01:41:22;2.40;;;0.73;;
73382;SDS011;61600;48.126;11.542;2022-11-04T01:43:51;2.97;;;1.15;;
73382;SDS011;61600;48.126;11.542;2022-11-04T01:52:05;1.88;;;1.05;;
73382;SDS011;61600;48.126;11.542;2022-11-04T01:54:34;2.53;;;0.80;;
73382;SDS011;61600;48.126;11.542;2022-11-04T01:57:01;2.10;;;0.80;;
73382;SDS011;61600;48.126;11.542;2022-11-04T01:59:32;1.65;;;0.85;;
73382;SDS011;61600;48.126;11.542;2022-11-04T02:02:02;2.30;;;0.73;;
73382;SDS011;61600;48.126;11.542;2022-11-04T02:04:28;0.95;;;0.60;;
73382;SDS011;61600;48.126;11.542;2022-11-04T02:09:29;0.98;;;0.60;;
73382;SDS011;61600;48.126;11.542;2022-11-04T02:14:41;1.77;;;0.73;;
73382;SDS011;61600;48.126;11.542;2022-11-04T02:17:19;0.95;;;0.52;;
73382;SDS011;61600;48.126;11.542;2022-11-04T02:34:33;1.50;;;0.60;;
73382;SDS011;61600;48.126;11.542;2022-11-04T02:37:12;1.92;;;0.50;;
73382;SDS011;61600;48.126;11.542;2022-11-04T02:40:04;0.90;;;0.45;;
73382;SDS011;61600;48.126;11.542;2022-11-04T02:42:43;2.45;;;0.77;;
73382;SDS011;61600;48.126;11.542;2022-11-04T02:45:20;2.33;;;0.60;;
73382;SDS011;61600;48.126;11.542;2022-11-04T02:51:08;0.85;;;0.60;;
73382;SDS011;61600;48.126;11.542;2022-11-04T02:53:47;1.08;;;0.52;;
73382;SDS011;61600;48.126;11.542;2022-11-04T02:56:21;2.42;;;0.70;;
73382;SDS011;61600;48.126;11.542;2022-11-04T02:58:57;0.63;;;0.40;;
73382;SDS011;61600;48.126;11.542;2022-11-04T03:01:29;0.65;;;0.47;;
73382;SDS011;61600;48.126;11.542;2022-11-04T03:04:01;1.05;;;0.50;;
73382;SDS011;61600;48.126;11.542;2022-11-04T03:06:33;0.90;;;0.52;;
73382;SDS011;61600;48.126;11.542;2022-11-04T03:11:27;1.27;;;0.40;;
73382;SDS011;61600;48.126;11.542;2022-11-04T03:14:03;0.70;;;0.47;;
73382;SDS011;61600;48.126;11.542;2022-11-04T03:16:35;0.85;;;0.55;;
73382;SDS011;61600;48.126;11.542;2022-11-04T03:19:06;0.85;;;0.30;;
73382;SDS011;61600;48.126;11.542;2022-11-04T03:21:52;1.42;;;0.40;;
73382;SDS011;61600;48.126;11.542;2022-11-04T03:24:29;1.33;;;0.52;;
73382;SDS011;61600;48.126;11.542;2022-11-04T03:26:59;2.55;;;0.40;;
73382;SDS011;61600;48.126;11.542;2022-11-04T03:29:38;1.83;;;0.57;;
73382;SDS011;61600;48.126;11.542;2022-11-04T03:32:22;0.60;;;0.40;;
73382;SDS011;61600;48.126;11.542;2022-11-04T03:34:58;0.57;;;0.30;;
73382;SDS011;61600;48.126;11.542;2022-11-04T03:37:24;0.80;;;0.35;;
73382;SDS011;61600;48.126;11.542;2022-11-04T03:39:50;1.45;;;0.50;;
73382;SDS011;61600;48.126;11.542;2022-11-04T03:42:16;0.90;;;0.60;;
73382;SDS011;61600;48.126;11.542;2022-11-04T03:44:53;0.63;;;0.30;;
73382;SDS011;61600;48.126;11.542;2022-11-04T03:47:21;1.17;;;0.40;;
73382;SDS011;61600;48.126;11.542;2022-11-04T03:49:50;0.90;;;0.43;;
73382;SDS011;61600;48.126;11.542;2022-11-04T03:52:19;0.43;;;0.30;;
73382;SDS011;61600;48.126;11.542;2022-11-04T03:54:45;1.17;;;0.50;;
73382;SDS011;61600;48.126;11.542;2022-11-04T04:00:11;0.57;;;0.30;;
73382;SDS011;61600;48.126;11.542;2022-11-04T04:05:13;0.77;;;0.30;;
73382;SDS011;61600;48.126;11.542;2022-11-04T04:08:30;1.52;;;0.50;;
73382;SDS011;61600;48.126;11.542;2022-11-04T04:10:48;0.98;;;0.43;;
73382;SDS011;61600;48.126;11.542;2022-11-04T04:16:27;0.93;;;0.50;;
73382;SDS011;61600;48.126;11.542;2022-11-04T04:18:58;0.43;;;0.30;;
73382;SDS011;61600;48.126;11.542;2022-11-04T04:21:34;1.27;;;0.47;;
73382;SDS011;61600;48.126;11.542;2022-11-04T04:24:06;1.05;;;0.50;;
73382;SDS011;61600;48.126;11.542;2022-11-04T04:26:53;0.75;;;0.30;;
73382;SDS011;61600;48.126;11.542;2022-11-04T04:29:39;0.65;;;0.30;;
73382;SDS011;61600;48.126;11.542;2022-11-04T04:32:08;0.50;;;0.28;;
73382;SDS011;61600;48.126;11.542;2022-11-04T04:34:34;0.82;;;0.40;;
73382;SDS011;61600;48.126;11.542;2022-11-04T04:37:06;0.98;;;0.45;;
73382;SDS011;61600;48.126;11.542;2022-11-04T04:39:42;0.55;;;0.40;;
73382;SDS011;61600;48.126;11.542;2022-11-04T04:42:34;0.90;;;0.40;;
73382;SDS011;61600;48.126;11.542;2022-11-04T04:45:21;1.13;;;0.50;;
73382;SDS011;61600;48.126;11.542;2022-11-04T04:47:52;0.30;;;0.30;;
73382;SDS011;61600;48.126;11.542;2022-11-04T04:50:18;2.17;;;0.63;;
73382;SDS011;61600;48.126;11.542;2022-11-04T04:52:49;1.60;;;0.50;;
73382;SDS011;61600;48.126;11.542;2022-11-04T04:55:17;1.20;;;0.50;;
73382;SDS011;61600;48.126;11.542;2022-11-04T04:57:43;0.73;;;0.30;;
73382;SDS011;61600;48.126;11.542;2022-11-04T05:00:14;0.77;;;0.38;;
73382;SDS011;61600;48.126;11.542;2022-11-04T05:02:42;0.50;;;0.30;;
73382;SDS011;61600;48.126;11.542;2022-11-04T05:05:08;1.05;;;0.70;;
73382;SDS011;61600;48.126;11.542;2022-11-04T05:07:34;1.85;;;0.90;;
73382;SDS011;61600;48.126;11.542;2022-11-04T05:10:00;1.48;;;0.50;;
73382;SDS011;61600;48.126;11.542;2022-11-04T05:12:25;1.20;;;0.52;;
73382;SDS011;61600;48.126;11.542;2022-11-04T05:15:11;3.05;;;0.50;;
73382;SDS011;61600;48.126;11.542;2022-11-04T05:17:37;0.20;;;0.20;;
73382;SDS011;61600;48.126;11.542;2022-11-04T05:20:02;1.58;;;0.63;;
73382;SDS011;61600;48.126;11.542;2022-11-04T05:22:28;2.10;;;0.60;;
73382;SDS011;61600;48.126;11.542;2022-11-04T05:24:54;0.77;;;0.30;;
73382;SDS011;61600;48.126;11.542;2022-11-04T05:27:19;2.00;;;0.50;;
73382;SDS011;61600;48.126;11.542;2022-11-04T05:29:45;1.85;;;0.60;;
73382;SDS011;61600;48.126;11.542;2022-11-04T05:32:11;0.80;;;0.55;;
73382;SDS011;61600;48.126;11.542;2022-11-04T05:34:36;1.30;;;0.43;;
73382;SDS011;61600;48.126;11.542;2022-11-04T05:37:02;0.98;;;0.40;;
73382;SDS011;61600;48.126;11.542;2022-11-04T05:39:27;1.17;;;0.40;;
73382;SDS011;61600;48.126;11.542;2022-11-04T05:41:53;0.77;;;0.40;;
73382;SDS011;61600;48.126;11.542;2022-11-04T05:44:19;1.65;;;0.68;;
73382;SDS011;61600;48.126;11.542;2022-11-04T05:46:44;0.90;;;0.50;;
73382;SDS011;61600;48.126;11.542;2022-11-04T05:49:10;1.38;;;0.63;;
73382;SDS011;61600;48.126;11.542;2022-11-04T05:51:36;0.75;;;0.43;;
73382;SDS011;61600;48.126;11.542;2022-11-04T05:57:37;1.23;;;0.40;;
73382;SDS011;61600;48.126;11.542;2022-11-04T06:00:02;0.98;;;0.30;;
73382;SDS011;61600;48.126;11.542;2022-11-04T06:09:52;1.60;;;0.45;;
73382;SDS011;61600;48.126;11.542;2022-11-04T06:12:18;3.22;;;0.52;;
73382;SDS011;61600;48.126;11.542;2022-11-04T06:14:44;1.48;;;0.50;;
73382;SDS011;61600;48.126;11.542;2022-11-04T06:17:13;1.10;;;0.30;;
73382;SDS011;61600;48.126;11.542;2022-11-04T06:19:40;2.45;;;0.68;;
73382;SDS011;61600;48.126;11.542;2022-11-04T06:22:07;0.98;;;0.50;;
73382;SDS011;61600;48.126;11.542;2022-11-04T06:24:35;1.42;;;0.60;;
73382;SDS011;61600;48.126;11.542;2022-11-04T06:27:01;2.53;;;0.52;;
73382;SDS011;61600;48.126;11.542;2022-11-04T06:29:27;0.75;;;0.50;;
73382;SDS011;61600;48.126;11.542;2022-11-04T06:31:52;1.00;;;0.45;;
73382;SDS011;61600;48.126;11.542;2022-11-04T06:34:18;1.45;;;0.75;;
73382;SDS011;61600;48.126;11.542;2022-11-04T06:36:44;1.40;;;0.60;;
73382;SDS011;61600;48.126;11.542;2022-11-04T06:39:10;2.55;;;1.05;;
73382;SDS011;61600;48.126;11.542;2022-11-04T06:41:36;4.07;;;0.90;;
73382;SDS011;61600;48.126;11.542;2022-11-04T06:44:02;3.90;;;0.85;;
73382;SDS011;61600;48.126;11.542;2022-11-04T06:49:11;4.97;;;1.05;;
73382;SDS011;61600;48.126;11.542;2022-11-04T06:51:38;1.55;;;0.70;;
73382;SDS011;61600;48.126;11.542;2022-11-04T06:54:04;4.10;;;1.20;;
73382;SDS011;61600;48.126;11.542;2022-11-04T06:56:30;1.80;;;0.80;;
73382;SDS011;61600;48.126;11.542;2022-11-04T06:58:56;1.77;;;0.70;;
73382;SDS011;61600;48.126;11.542;2022-11-04T07:01:23;2.70;;;0.88;;
73382;SDS011;61600;48.126;11.542;2022-11-04T07:03:53;2.70;;;0.98;;
73382;SDS011;61600;48.126;11.542;2022-11-04T07:06:21;2.28;;;0.70;;
73382;SDS011;61600;48.126;11.542;2022-11-04T07:08:47;1.13;;;0.70;;
73382;SDS011;61600;48.126;11.542;2022-11-04T07:13:40;2.20;;;1.00;;
73382;SDS011;61600;48.126;11.542;2022-11-04T07:16:06;2.33;;;0.75;;
73382;SDS011;61600;48.126;11.542;2022-11-04T07:18:35;3.45;;;1.00;;
73382;SDS011;61600;48.126;11.542;2022-11-04T07:21:01;4.85;;;1.65;;
73382;SDS011;61600;48.126;11.542;2022-11-04T07:25:58;1.52;;;0.70;;
73382;SDS011;61600;48.126;11.542;2022-11-04T07:28:28;1.75;;;0.93;;
73382;SDS011;61600;48.126;11.542;2022-11-04T07:31:00;2.75;;;0.80;;
73382;SDS011;61600;48.126;11.542;2022-11-04T07:33:27;2.58;;;1.00;;
73382;SDS011;61600;48.126;11.542;2022-11-04T07:35:53;1.15;;;0.70;;
73382;SDS011;61600;48.126;11.542;2022-11-04T07:38:19;1.40;;;0.73;;
73382;SDS011;61600;48.126;11.542;2022-11-04T07:40:45;2.15;;;0.60;;
73382;SDS011;61600;48.126;11.542;2022-11-04T07:43:11;10.70;;;4.53;;
73382;SDS011;61600;48.126;11.542;2022-11-04T07:45:38;3.40;;;1.30;;
73382;SDS011;61600;48.126;11.542;2022-11-04T07:48:04;3.45;;;1.20;;
73382;SDS011;61600;48.126;11.542;2022-11-04T07:50:29;2.65;;;0.75;;
73382;SDS011;61600;48.126;11.542;2022-11-04T07:52:55;4.38;;;1.02;;
73382;SDS011;61600;48.126;11.542;2022-11-04T07:55:21;1.88;;;0.75;;
73382;SDS011;61600;48.126;11.542;2022-11-04T07:57:47;2.92;;;1.13;;
73382;SDS011;61600;48.126;11.542;2022-11-04T08:00:13;3.40;;;0.75;;
73382;SDS011;61600;48.126;11.542;2022-11-04T08:02:43;2.15;;;1.00;;
73382;SDS011;61600;48.126;11.542;2022-11-04T08:05:10;2.47;;;1.20;;
73382;SDS011;61600;48.126;11.542;2022-11-04T08:07:37;2.78;;;0.70;;
73382;SDS011;61600;48.126;11.542;2022-11-04T08:10:03;2.00;;;0.90;;
73382;SDS011;61600;48.126;11.542;2022-11-04T08:12:29;2.05;;;0.70;;
73382;SDS011;61600;48.126;11.542;2022-11-04T08:14:57;1.52;;;0.80;;
73382;SDS011;61600;48.126;11.542;2022-11-04T08:17:23;1.13;;;0.60;;
73382;SDS011;61600;48.126;11.542;2022-11-04T08:19:49;2.25;;;0.80;;
73382;SDS011;61600;48.126;11.542;2022-11-04T08:22:15;3.17;;;0.95;;
73382;SDS011;61600;48.126;11.542;2022-11-04T08:24:41;1.77;;;0.90;;
73382;SDS011;61600;48.126;11.542;2022-11-04T08:27:06;2.10;;;1.00;;
73382;SDS011;61600;48.126;11.542;2022-11-04T08:29:33;2.15;;;1.02;;
73382;SDS011;61600;48.126;11.542;2022-11-04T08:31:59;3.33;;;1.27;;
73382;SDS011;61600;48.126;11.542;2022-11-04T08:34:24;1.70;;;0.80;;
73382;SDS011;61600;48.126;11.542;2022-11-04T08:36:50;4.05;;;1.10;;
73382;SDS011;61600;48.126;11.542;2022-11-04T08:39:17;2.97;;;1.20;;
73382;SDS011;61600;48.126;11.542;2022-11-04T08:41:44;3.97;;;1.77;;
73382;SDS011;61600;48.126;11.542;2022-11-04T08:44:15;2.45;;;0.85;;
73382;SDS011;61600;48.126;11.542;2022-11-04T08:46:42;0.98;;;0.82;;
73382;SDS011;61600;48.126;11.542;2022-11-04T08:49:09;3.20;;;0.75;;
73382;SDS011;61600;48.126;11.542;2022-11-04T08:51:37;4.97;;;0.95;;
73382;SDS011;61600;48.126;11.542;2022-11-04T08:54:08;2.05;;;0.90;;
73382;SDS011;61600;48.126;11.542;2022-11-04T08:56:36;1.70;;;0.85;;
73382;SDS011;61600;48.126;11.542;2022-11-04T08:59:03;2.65;;;0.90;;
73382;SDS011;61600;48.126;11.542;2022-11-04T09:01:30;2.45;;;0.95;;
73382;SDS011;61600;48.126;11.542;2022-11-04T09:03:59;3.53;;;0.80;;
73382;SDS011;61600;48.126;11.542;2022-11-04T09:06:26;3.00;;;0.70;;
73382;SDS011;61600;48.126;11.542;2022-11-04T09:08:54;1.58;;;0.73;;
73382;SDS011;61600;48.126;11.542;2022-11-04T09:11:23;3.00;;;1.08;;
73382;SDS011;61600;48.126;11.542;2022-11-04T09:13:48;2.13;;;0.70;;
73382;SDS011;61600;48.126;11.542;2022-11-04T09:16:14;4.60;;;1.00;;
73382;SDS011;61600;48.126;11.542;2022-11-04T09:18:40;4.13;;;1.30;;
73382;SDS011;61600;48.126;11.542;2022-11-04T09:21:06;1.98;;;1.00;;
73382;SDS011;61600;48.126;11.542;2022-11-04T09:23:34;2.03;;;0.90;;
73382;SDS011;61600;48.126;11.542;2022-11-04T09:26:04;5.35;;;1.17;;
73382;SDS011;61600;48.126;11.542;2022-11-04T09:28:38;2.10;;;1.02;;
73382;SDS011;61600;48.126;11.542;2022-11-04T09:31:09;2.83;;;0.80;;
73382;SDS011;61600;48.126;11.542;2022-11-04T09:33:39;6.15;;;1.60;;
73382;SDS011;61600;48.126;11.542;2022-11-04T09:36:05;3.50;;;1.10;;
73382;SDS011;61600;48.126;11.542;2022-11-04T09:38:33;3.17;;;1.10;;
73382;SDS011;61600;48.126;11.542;2022-11-04T09:41:00;4.85;;;1.23;;
73382;SDS011;61600;48.126;11.542;2022-11-04T09:45:57;1.88;;;0.80;;
73382;SDS011;61600;48.126;11.542;2022-11-04T09:48:27;3.58;;;0.98;;
73382;SDS011;61600;48.126;11.542;2022-11-04T09:50:58;2.63;;;1.52;;
73382;SDS011;61600;48.126;11.542;2022-11-04T09:53:27;2.83;;;1.13;;
73382;SDS011;61600;48.126;11.542;2022-11-04T09:56:20;3.42;;;1.10;;
73382;SDS011;61600;48.126;11.542;2022-11-04T09:58:48;2.13;;;1.02;;
73382;SDS011;61600;48.126;11.542;2022-11-04T10:03:52;4.32;;;1.50;;
73382;SDS011;61600;48.126;11.542;2022-11-04T10:06:30;3.92;;;1.77;;
73382;SDS011;61600;48.126;11.542;2022-11-04T10:20:15;3.70;;;1.95;;
73382;SDS011;61600;48.126;11.542;2022-11-04T10:22:56;1.67;;;0.90;;
73382;SDS011;61600;48.126;11.542;2022-11-04T10:25:49;3.78;;;1.13;;
73382;SDS011;61600;48.126;11.542;2022-11-04T10:28:24;2.05;;;0.95;;
73382;SDS011;61600;48.126;11.542;2022-11-04T10:30:57;1.63;;;0.77;;
73382;SDS011;61600;48.126;11.542;2022-11-04T10:33:27;2.15;;;0.80;;
73382;SDS011;61600;48.126;11.542;2022-11-04T10:36:07;1.58;;;0.88;;
73382;SDS011;61600;48.126;11.542;2022-11-04T10:38:55;2.97;;;1.00;;
73382;SDS011;61600;48.126;11.542;2022-11-04T10:44:13;2.25;;;0.90;;
73382;SDS011;61600;48.126;11.542;2022-11-04T10:49:54;2.47;;;0.85;;
73382;SDS011;61600;48.126;11.542;2022-11-04T10:52:26;3.10;;;1.15;;
73382;SDS011;61600;48.126;11.542;2022-11-04T10:54:52;4.07;;;1.42;;
73382;SDS011;61600;48.126;11.542;2022-11-04T10:57:22;2.85;;;1.05;;
73382;SDS011;61600;48.126;11.542;2022-11-04T10:59:51;4.63;;;1.15;;
73382;SDS011;61600;48.126;11.542;2022-11-04T11:07:44;4.47;;;1.23;;
73382;SDS011;61600;48.126;11.542;2022-11-04T11:10:18;2.15;;;1.00;;
73382;SDS011;61600;48.126;11.542;2022-11-04T11:13:03;3.17;;;1.23;;
73382;SDS011;61600;48.126;11.542;2022-11-04T11:15:32;6.05;;;1.42;;
73382;SDS011;61600;48.126;11.542;2022-11-04T11:18:10;2.22;;;1.10;;
73382;SDS011;61600;48.126;11.542;2022-11-04T11:20:39;2.70;;;1.15;;
73382;SDS011;61600;48.126;11.542;2022-11-04T11:23:48;3.45;;;1.00;;
73382;SDS011;61600;48.126;11.542;2022-11-04T11:25:59;2.30;;;0.75;;
73382;SDS011;61600;48.126;11.542;2022-11-04T11:28:27;2.97;;;1.23;;
73382;SDS011;61600;48.126;11.542;2022-11-04T11:33:34;2.25;;;1.00;;
73382;SDS011;61600;48.126;11.542;2022-11-04T11:36:03;3.72;;;1.20;;
73382;SDS011;61600;48.126;11.542;2022-11-04T11:38:37;2.95;;;1.50;;
73382;SDS011;61600;48.126;11.542;2022-11-04T11:41:15;2.20;;;1.10;;
73382;SDS011;61600;48.126;11.542;2022-11-04T11:43:49;2.85;;;1.20;;
73382;SDS011;61600;48.126;11.542;2022-11-04T11:46:23;2.45;;;0.93;;
73382;SDS011;61600;48.126;11.542;2022-11-04T11:48:51;2.03;;;0.93;;
73382;SDS011;61600;48.126;11.542;2022-11-04T11:51:23;2.38;;;0.80;;
73382;SDS011;61600;48.126;11.542;2022-11-04T11:56:54;1.73;;;0.60;;
73382;SDS011;61600;48.126;11.542;2022-11-04T12:04:43;1.27;;;0.80;;
73382;SDS011;61600;48.126;11.542;2022-11-04T12:07:17;1.50;;;0.63;;
73382;SDS011;61600;48.126;11.542;2022-11-04T12:15:15;1.55;;;0.80;;
73382;SDS011;61600;48.126;11.542;2022-11-04T12:20:54;2.15;;;0.90;;
73382;SDS011;61600;48.126;11.542;2022-11-04T12:30:03;4.55;;;0.90;;
73382;SDS011;61600;48.126;11.542;2022-11-04T12:41:11;2.63;;;1.13;;
73382;SDS011;61600;48.126;11.542;2022-11-04T12:44:39;2.97;;;1.10;;
73382;SDS011;61600;48.126;11.542;2022-11-04T12:47:16;1.88;;;0.73;;
73382;SDS011;61600;48.126;11.542;2022-11-04T12:57:59;2.05;;;0.60;;
73382;SDS011;61600;48.126;11.542;2022-11-04T13:00:40;1.73;;;0.82;;
73382;SDS011;61600;48.126;11.542;2022-11-04T13:03:12;1.08;;;0.60;;
73382;SDS011;61600;48.126;11.542;2022-11-04T13:11:25;4.57;;;1.17;;
73382;SDS011;61600;48.126;11.542;2022-11-04T13:14:07;1.77;;;0.90;;
73382;SDS011;61600;48.126;11.542;2022-11-04T13:16:40;2.25;;;0.80;;
73382;SDS011;61600;48.126;11.542;2022-11-04T13:19:33;2.78;;;1.10;;
73382;SDS011;61600;48.126;11.542;2022-11-04T13:22:09;3.08;;;0.90;;
73382;SDS011;61600;48.126;11.542;2022-11-04T13:24:44;1.60;;;0.88;;
73382;SDS011;61600;48.126;11.542;2022-11-04T13:27:17;1.65;;;0.85;;
73382;SDS011;61600;48.126;11.542;2022-11-04T13:29:47;1.40;;;0.90;;
73382;SDS011;61600;48.126;11.542;2022-11-04T13:32:28;2.67;;;1.20;;
73382;SDS011;61600;48.126;11.542;2022-11-04T13:37:27;2.05;;;1.00;;
73382;SDS011;61600;48.126;11.542;2022-11-04T13:39:59;1.73;;;0.90;;
73382;SDS011;61600;48.126;11.542;2022-11-04T13:46:15;1.42;;;0.80;;
73382;SDS011;61600;48.126;11.542;2022-11-04T13:51:38;1.92;;;0.90;;
73382;SDS011;61600;48.126;11.542;2022-11-04T14:01:45;2.70;;;1.05;;
73382;SDS011;61600;48.126;11.542;2022-11-04T14:04:18;1.52;;;0.85;;
73382;SDS011;61600;48.126;11.542;2022-11-04T14:06:50;1.77;;;0.95;;
73382;SDS011;61600;48.126;11.542;2022-11-04T14:14:34;3.35;;;1.08;;
73382;SDS011;61600;48.126;11.542;2022-11-04T14:17:25;2.90;;;1.40;;
73382;SDS011;61600;48.126;11.542;2022-11-04T14:25:20;1.38;;;0.80;;
73382;SDS011;61600;48.126;11.542;2022-11-04T14:27:49;1.88;;;0.90;;
73382;SDS011;61600;48.126;11.542;2022-11-04T14:38:51;3.00;;;1.20;;
73382;SDS011;61600;48.126;11.542;2022-11-04T14:46:55;4.30;;;1.50;;
73382;SDS011;61600;48.126;11.542;2022-11-04T14:57:36;1.95;;;0.77;;
73382;SDS011;61600;48.126;11.542;2022-11-04T15:03:09;1.90;;;0.95;;
73382;SDS011;61600;48.126;11.542;2022-11-04T15:05:40;2.00;;;1.05;;
73382;SDS011;61600;48.126;11.542;2022-11-04T15:08:24;2.50;;;1.00;;
73382;SDS011;61600;48.126;11.542;2022-11-04T15:10:57;2.50;;;0.80;;
73382;SDS011;61600;48.126;11.542;2022-11-04T15:13:27;2.05;;;1.00;;
73382;SDS011;61600;48.126;11.542;2022-11-04T15:15:55;3.42;;;1.15;;
73382;SDS011;61600;48.126;11.542;2022-11-04T15:18:24;2.47;;;0.75;;
73382;SDS011;61600;48.126;11.542;2022-11-04T15:20:54;3.47;;;0.80;;
73382;SDS011;61600;48.126;11.542;2022-11-04T15:23:32;4.68;;;1.10;;
73382;SDS011;61600;48.126;11.542;2022-11-04T15:26:01;1.73;;;0.90;;
73382;SDS011;61600;48.126;11.542;2022-11-04T15:28:29;1.90;;;1.00;;
73382;SDS011;61600;48.126;11.542;2022-11-04T15:31:13;1.80;;;0.95;;
73382;SDS011;61600;48.126;11.542;2022-11-04T15:33:42;3.63;;;1.00;;
73382;SDS011;61600;48.126;11.542;2022-11-04T15:36:15;3.55;;;1.50;;
73382;SDS011;61600;48.126;11.542;2022-11-04T15:38:45;2.08;;;1.27;;
73382;SDS011;61600;48.126;11.542;2022-11-04T15:41:30;1.77;;;0.90;;
73382;SDS011;61600;48.126;11.542;2022-11-04T15:46:59;1.70;;;1.00;;
73382;SDS011;61600;48.126;11.542;2022-11-04T15:49:28;2.95;;;1.00;;
73382;SDS011;61600;48.126;11.542;2022-11-04T15:52:26;2.67;;;1.00;;
73382;SDS011;61600;48.126;11.542;2022-11-04T15:54:57;2.15;;;1.02;;
73382;SDS011;61600;48.126;11.542;2022-11-04T15:57:33;2.45;;;1.55;;
73382;SDS011;61600;48.126;11.542;2022-11-04T16:00:24;3.10;;;1.48;;
73382;SDS011;61600;48.126;11.542;2022-11-04T16:02:59;2.15;;;1.10;;
73382;SDS011;61600;48.126;11.542;2022-11-04T16:05:37;1.70;;;0.88;;
73382;SDS011;61600;48.126;11.542;2022-11-04T16:11:11;3.25;;;1.30;;
73382;SDS011;61600;48.126;11.542;2022-11-04T16:13:42;2.20;;;1.20;;
73382;SDS011;61600;48.126;11.542;2022-11-04T16:16:17;3.33;;;1.30;;
73382;SDS011;61600;48.126;11.542;2022-11-04T16:18:51;3.53;;;1.58;;
73382;SDS011;61600;48.126;11.542;2022-11-04T16:21:32;4.13;;;1.85;;
73382;SDS011;61600;48.126;11.542;2022-11-04T16:24:08;3.53;;;1.55;;
73382;SDS011;61600;48.126;11.542;2022-11-04T16:26:46;3.35;;;1.65;;
73382;SDS011;61600;48.126;11.542;2022-11-04T16:29:17;2.75;;;1.35;;
73382;SDS011;61600;48.126;11.542;2022-11-04T16:32:02;3.65;;;1.83;;
73382;SDS011;61600;48.126;11.542;2022-11-04T16:34:31;3.60;;;1.40;;
73382;SDS011;61600;48.126;11.542;2022-11-04T16:37:01;2.38;;;1.17;;
73382;SDS011;61600;48.126;11.542;2022-11-04T16:39:28;2.33;;;1.27;;
73382;SDS011;61600;48.126;11.542;2022-11-04T16:42:02;3.15;;;1.30;;
73382;SDS011;61600;48.126;11.542;2022-11-04T16:44:31;3.53;;;1.38;;
73382;SDS011;61600;48.126;11.542;2022-11-04T16:46:58;3.65;;;1.52;;
73382;SDS011;61600;48.126;11.542;2022-11-04T16:49:26;4.07;;;2.00;;
73382;SDS011;61600;48.126;11.542;2022-11-04T16:51:53;5.88;;;3.10;;
73382;SDS011;61600;48.126;11.542;2022-11-04T16:54:25;6.40;;;2.95;;
73382;SDS011;61600;48.126;11.542;2022-11-04T16:56:52;5.97;;;3.08;;
73382;SDS011;61600;48.126;11.542;2022-11-04T16:59:19;6.28;;;3.08;;
73382;SDS011;61600;48.126;11.542;2022-11-04T17:01:45;5.03;;;2.28;;
73382;SDS011;61600;48.126;11.542;2022-11-04T17:04:11;4.72;;;2.40;;
73382;SDS011;61600;48.126;11.542;2022-11-04T17:06:37;5.38;;;3.08;;
73382;SDS011;61600;48.126;11.542;2022-11-04T17:09:05;5.70;;;2.92;;
73382;SDS011;61600;48.126;11.542;2022-11-04T17:11:42;6.40;;;2.40;;
73382;SDS011;61600;48.126;11.542;2022-11-04T17:14:08;4.85;;;2.38;;
73382;SDS011;61600;48.126;11.542;2022-11-04T17:16:34;4.75;;;2.20;;
73382;SDS011;61600;48.126;11.542;2022-11-04T17:18:59;5.80;;;2.58;;
73382;SDS011;61600;48.126;11.542;2022-11-04T17:21:25;3.42;;;1.98;;
73382;SDS011;61600;48.126;11.542;2022-11-04T17:23:51;3.35;;;2.20;;
73382;SDS011;61600;48.126;11.542;2022-11-04T17:26:17;4.28;;;2.00;;
73382;SDS011;61600;48.126;11.542;2022-11-04T17:28:43;3.47;;;1.60;;
73382;SDS011;61600;48.126;11.542;2022-11-04T17:31:10;5.10;;;2.25;;
73382;SDS011;61600;48.126;11.542;2022-11-04T17:33:42;4.55;;;1.88;;
73382;SDS011;61600;48.126;11.542;2022-11-04T17:36:13;3.58;;;1.88;;
73382;SDS011;61600;48.126;11.542;2022-11-04T17:38:41;2.85;;;1.48;;
73382;SDS011;61600;48.126;11.542;2022-11-04T17:41:07;4.32;;;1.92;;
73382;SDS011;61600;48.126;11.542;2022-11-04T17:43:51;5.28;;;2.28;;
73382;SDS011;61600;48.126;11.542;2022-11-04T17:46:29;6.78;;;3.05;;
73382;SDS011;61600;48.126;11.542;2022-11-04T17:49:05;5.57;;;2.15;;
73382;SDS011;61600;48.126;11.542;2022-11-04T17:51:34;4.22;;;1.90;;
73382;SDS011;61600;48.126;11.542;2022-11-04T17:54:04;4.70;;;2.40;;
73382;SDS011;61600;48.126;11.542;2022-11-04T17:56:34;4.30;;;2.13;;
73382;SDS011;61600;48.126;11.542;2022-11-04T18:01:28;3.50;;;1.85;;
73382;SDS011;61600;48.126;11.542;2022-11-04T18:03:55;4.53;;;1.85;;
73382;SDS011;61600;48.126;11.542;2022-11-04T18:06:22;4.07;;;1.88;;
73382;SDS011;61600;48.126;11.542;2022-11-04T18:08:53;6.45;;;2.15;;
73382;SDS011;61600;48.126;11.542;2022-11-04T18:11:19;4.20;;;1.90;;